Irkutsk, Russia
Current Conditions -  °F | °C
As of 2:00 AM on Saturday 29 Nov 2014 (Local Time) from UIII Reporting Station
Smoke Smoke  
Wind Chill: -4°   Ceiling: Unl
Heat Index:   Visibility: 2.5mi
Dew Point:   Wind: 4mph
Humidity: 85%   Direction: 340°NNW
Pressure: 30.09"   Gusts: NA
Location:  52.33°N, 104.24°E
Report Text: UIII 281800Z 34002MPS 4000 FU NSC M15/M17 Q1019 NOSIG RMKQFE719/0959 30CLRD60
Loading
Personal Weather Stations






























Interactive Weather Map New forecast layout! Learn more

10-Day Weather Forecast

Advertisements
Track Severe Weather on mobile